Terminal Aerodrome Forecast
Issued by NWS

Home | Current Version | Previous Version | Text Only | Print | Product List | Glossary On
Versions: 1 2 3 4 5 6 7 8 9 10 11 12 13 14 15 16 17 18 19 20 21 22 23 24 25 26
490
FTUS46 KSEW 191918 AAA
TAFOLM
TAF AMD
KOLM 191918Z 1919/2018 19010G22KT P6SM -SHRA SCT025 BKN045
      TEMPO 1919/1921 BKN025 BKN045
     FM192100 18012G22KT P6SM -SHRA SCT025 BKN050
      TEMPO 1922/2002 4SM SHRA BKN025 OVC040
     FM200300 19009KT P6SM -SHRA SCT030 BKN050
     FM200800 19005KT P6SM VCSH BKN050=

USA.gov is the U.S. government's official web portal to all federal, state and local government web resources and services.